Time;durP1;ratioP1;P1;durP2;ratioP2;P2;SDS_P1;SDS_P2;PMS_P1;PMS_P2;Temp;Humidity;BMP_temperature;BMP_pressure;BME280_temperature;BME280_humidity;BME280_pressure;Samples;Min_cycle;Max_cycle;Signal;HPM_P1;HPM_P2
2023/07/15 00:00:42;;;;;;;5.20;2.40;;;21.30;1.00;;;;;;5122445;27;20484;-70
2023/07/15 00:03:08;;;;;;;4.65;2.30;;;21.30;1.00;;;;;;5124453;28;20394;-70
2023/07/15 00:05:35;;;;;;;4.80;2.70;;;21.30;1.00;;;;;;5121119;27;20810;-70
2023/07/15 00:08:02;;;;;;;4.15;2.40;;;21.30;1.00;;;;;;5124403;27;20463;-70
2023/07/15 00:10:29;;;;;;;5.05;2.30;;;21.30;1.00;;;;;;5101193;27;20484;-70
2023/07/15 00:12:55;;;;;;;5.95;2.80;;;21.20;1.00;;;;;;5111194;27;20435;-70
2023/07/15 00:15:21;;;;;;;4.88;2.88;;;21.20;1.00;;;;;;5127561;27;20402;-70
2023/07/15 00:17:47;;;;;;;4.82;2.38;;;21.20;1.00;;;;;;5131084;27;20721;-70
2023/07/15 00:20:14;;;;;;;4.60;2.60;;;21.20;1.00;;;;;;5127345;27;20412;-70
2023/07/15 00:22:44;;;;;;;5.13;2.53;;;21.20;1.00;;;;;;5121276;27;20409;-70
2023/07/15 00:25:18;;;;;;;4.23;2.30;;;21.20;1.00;;;;;;5130071;27;20403;-70
2023/07/15 00:27:44;;;;;;;5.75;2.75;;;21.20;1.00;;;;;;5131240;27;20422;-70
2023/07/15 00:30:13;;;;;;;5.43;2.73;;;21.20;1.00;;;;;;5128920;27;20803;-70
2023/07/15 00:32:40;;;;;;;7.40;2.55;;;21.10;1.00;;;;;;5130132;27;20394;-70
2023/07/15 00:35:28;;;;;;;7.97;2.70;;;21.10;1.00;;;;;;5129122;27;20456;-70
2023/07/15 00:37:53;;;;;;;4.65;2.45;;;21.10;1.00;;;;;;5127191;27;20755;-70
2023/07/15 00:40:19;;;;;;;5.00;2.60;;;21.10;1.00;;;;;;5119661;27;20393;-71
2023/07/15 00:43:09;;;;;;;6.57;3.00;;;21.00;1.00;;;;;;5123937;27;20761;-70
2023/07/15 00:45:34;;;;;;;5.32;2.72;;;21.00;1.00;;;;;;5128758;27;20421;-70
2023/07/15 00:48:03;;;;;;;7.47;2.70;;;21.00;1.00;;;;;;5125991;27;20927;-70
2023/07/15 00:50:29;;;;;;;6.35;2.78;;;20.90;1.00;;;;;;5129487;27;20399;-70
2023/07/15 00:52:54;;;;;;;4.50;2.63;;;20.90;1.00;;;;;;5121644;27;20470;-70
2023/07/15 00:55:22;;;;;;;5.57;2.97;;;20.90;1.00;;;;;;5122196;27;20405;-70
2023/07/15 00:57:48;;;;;;;5.95;2.60;;;20.90;1.00;;;;;;5126744;27;20409;-69
2023/07/15 01:00:14;;;;;;;4.40;2.55;;;20.90;1.00;;;;;;5110716;27;20779;-69
2023/07/15 01:02:42;;;;;;;5.13;2.53;;;20.80;1.00;;;;;;5115546;27;20399;-69
2023/07/15 01:05:09;;;;;;;4.47;2.35;;;20.80;1.00;;;;;;5109922;27;20445;-69
2023/07/15 01:07:35;;;;;;;5.00;2.50;;;20.70;1.00;;;;;;5127538;27;20822;-69
2023/07/15 01:10:01;;;;;;;4.60;2.90;;;20.70;1.00;;;;;;5117012;27;20928;-69
2023/07/15 01:12:26;;;;;;;4.17;2.60;;;20.60;1.00;;;;;;5110776;28;20439;-69
2023/07/15 01:14:52;;;;;;;4.83;2.47;;;20.60;1.00;;;;;;5111221;27;20407;-69
2023/07/15 01:17:19;;;;;;;7.38;2.85;;;20.50;1.00;;;;;;5096573;27;20405;-69
2023/07/15 01:19:44;;;;;;;5.90;2.63;;;20.50;1.00;;;;;;5110263;28;20973;-69
2023/07/15 01:22:11;;;;;;;6.20;2.65;;;20.50;1.00;;;;;;5117242;27;20441;-69
2023/07/15 01:24:36;;;;;;;6.05;2.60;;;20.50;1.00;;;;;;5130875;27;20405;-69
2023/07/15 01:27:07;;;;;;;4.83;2.70;;;20.50;1.00;;;;;;5128915;27;20517;-69
2023/07/15 01:29:33;;;;;;;5.65;2.67;;;20.50;1.00;;;;;;5129686;27;20399;-69
2023/07/15 01:31:59;;;;;;;5.57;2.57;;;20.50;1.00;;;;;;5129206;27;20458;-69
2023/07/15 01:34:24;;;;;;;5.43;2.55;;;20.50;1.00;;;;;;5129377;27;20398;-69
2023/07/15 01:36:51;;;;;;;5.60;2.60;;;20.50;1.00;;;;;;5128997;27;20441;-69
2023/07/15 01:39:16;;;;;;;5.25;2.60;;;20.50;1.00;;;;;;5127802;27;20417;-69
2023/07/15 01:41:45;;;;;;;5.53;2.67;;;20.50;1.00;;;;;;5129235;27;20387;-69
2023/07/15 01:44:12;;;;;;;4.78;2.40;;;20.50;1.00;;;;;;5127269;27;20399;-69
2023/07/15 01:46:40;;;;;;;4.60;2.30;;;20.50;1.00;;;;;;5128890;27;20985;-69
2023/07/15 01:49:07;;;;;;;5.65;2.50;;;20.50;1.00;;;;;;5127909;27;20903;-70
2023/07/15 01:51:35;;;;;;;5.90;2.58;;;20.50;1.00;;;;;;5130029;27;20413;-69
2023/07/15 01:54:00;;;;;;;3.63;2.20;;;20.50;1.00;;;;;;5126899;27;20966;-69
2023/07/15 01:56:26;;;;;;;5.60;2.53;;;20.50;1.00;;;;;;5122470;27;20407;-69
2023/07/15 01:58:52;;;;;;;5.83;2.50;;;20.50;1.00;;;;;;5123158;27;20394;-69
2023/07/15 02:01:18;;;;;;;5.00;2.50;;;20.50;1.00;;;;;;5129248;27;20403;-69
2023/07/15 02:03:45;;;;;;;6.43;2.72;;;20.50;1.00;;;;;;5127329;27;20918;-69
2023/07/15 02:06:11;;;;;;;8.05;2.53;;;20.50;1.00;;;;;;5128838;27;20539;-69
2023/07/15 02:08:36;;;;;;;4.60;2.33;;;20.50;1.00;;;;;;5124916;27;20894;-70
2023/07/15 02:11:02;;;;;;;5.80;2.73;;;20.50;1.00;;;;;;5105826;27;20486;-70
2023/07/15 02:13:28;;;;;;;5.55;2.40;;;20.50;1.00;;;;;;5129022;27;20430;-69
2023/07/15 02:15:53;;;;;;;5.07;2.30;;;20.40;1.00;;;;;;5128562;27;20410;-69
2023/07/15 02:18:21;;;;;;;6.30;2.60;;;20.50;1.00;;;;;;5115763;27;20495;-69
2023/07/15 02:20:49;;;;;;;6.07;2.60;;;20.40;1.00;;;;;;5129749;27;20441;-69
2023/07/15 02:23:15;;;;;;;6.57;2.55;;;20.40;99.90;;;;;;5128086;27;20398;-69
2023/07/15 02:25:41;;;;;;;5.03;2.20;;;20.40;1.00;;;;;;5115946;27;20404;-70
2023/07/15 02:28:06;;;;;;;4.45;2.35;;;20.40;1.00;;;;;;5125506;27;20795;-69
2023/07/15 02:30:32;;;;;;;6.53;2.60;;;20.40;1.00;;;;;;5126484;27;20402;-69
2023/07/15 02:32:58;;;;;;;5.05;2.40;;;20.40;1.00;;;;;;5126115;27;20399;-69
2023/07/15 02:35:23;;;;;;;5.27;2.30;;;20.40;99.90;;;;;;5126707;27;20401;-69
2023/07/15 02:37:49;;;;;;;5.18;2.53;;;20.40;99.90;;;;;;5125277;27;20395;-69
2023/07/15 02:40:15;;;;;;;3.92;2.28;;;20.40;1.00;;;;;;5123759;27;20394;-69
2023/07/15 02:42:41;;;;;;;6.03;2.28;;;20.30;99.90;;;;;;5125295;27;20395;-69
2023/07/15 02:45:11;;;;;;;5.37;2.20;;;20.40;99.90;;;;;;5125310;27;20399;-69
2023/07/15 02:47:39;;;;;;;6.63;2.50;;;20.30;1.00;;;;;;5105607;27;20434;-69
2023/07/15 02:50:07;;;;;;;4.35;2.40;;;20.30;1.00;;;;;;5115593;27;20394;-69
2023/07/15 02:52:34;;;;;;;4.70;2.22;;;20.20;1.00;;;;;;5122487;27;20515;-69
2023/07/15 02:55:03;;;;;;;7.45;2.28;;;20.20;1.00;;;;;;5124424;27;20422;-69
2023/07/15 02:57:29;;;;;;;3.87;2.17;;;20.20;99.90;;;;;;5122742;27;20403;-69
2023/07/15 02:59:58;;;;;;;4.05;2.10;;;20.20;99.90;;;;;;5107587;27;20412;-70
2023/07/15 03:02:24;;;;;;;3.87;2.30;;;20.10;99.90;;;;;;5111321;27;20495;-69
2023/07/15 03:04:50;;;;;;;4.30;2.13;;;20.10;99.90;;;;;;5108270;28;20503;-69
2023/07/15 03:07:17;;;;;;;5.28;2.25;;;20.10;99.90;;;;;;5109099;28;20463;-69
2023/07/15 03:09:43;;;;;;;4.67;1.90;;;20.10;99.90;;;;;;5090306;28;20474;-69
2023/07/15 03:12:09;;;;;;;3.73;2.03;;;20.10;99.90;;;;;;5108752;28;20427;-69
2023/07/15 03:14:35;;;;;;;4.95;2.08;;;20.10;99.90;;;;;;5107883;27;20551;-69
2023/07/15 03:17:01;;;;;;;5.65;2.28;;;20.10;99.90;;;;;;5108544;28;20835;-69
2023/07/15 03:19:27;;;;;;;5.55;1.90;;;20.10;99.90;;;;;;5108554;28;20400;-69
2023/07/15 03:21:53;;;;;;;3.97;2.00;;;20.10;99.90;;;;;;5108827;28;20412;-69
2023/07/15 03:24:19;;;;;;;4.23;2.00;;;20.10;99.90;;;;;;5108603;28;20475;-68
2023/07/15 03:26:44;;;;;;;6.97;2.87;;;20.10;99.90;;;;;;5108392;28;20468;-69
2023/07/15 03:29:10;;;;;;;6.75;2.17;;;20.10;99.90;;;;;;5108569;28;20403;-70
2023/07/15 03:31:36;;;;;;;4.15;2.08;;;20.00;99.90;;;;;;5108323;28;20396;-70
2023/07/15 03:34:02;;;;;;;3.87;2.10;;;20.00;99.90;;;;;;5108450;28;20845;-70
2023/07/15 03:36:27;;;;;;;4.38;2.08;;;20.00;99.90;;;;;;5115670;27;20400;-70
2023/07/15 03:38:53;;;;;;;6.50;2.10;;;20.00;1.00;;;;;;5117871;27;20436;-70
2023/07/15 03:41:19;;;;;;;6.47;2.00;;;19.90;1.00;;;;;;5109841;28;20408;-70
2023/07/15 03:43:45;;;;;;;6.63;2.28;;;19.90;1.00;;;;;;5109261;27;20453;-70
2023/07/15 03:46:12;;;;;;;5.72;2.20;;;19.90;1.00;;;;;;5094974;28;20796;-69
2023/07/15 03:48:38;;;;;;;4.28;2.17;;;19.90;1.00;;;;;;5108431;28;20476;-69
2023/07/15 03:51:06;;;;;;;4.32;1.80;;;19.90;1.00;;;;;;5108452;28;20475;-70
2023/07/15 03:53:32;;;;;;;4.60;2.03;;;19.90;1.00;;;;;;5107020;28;20461;-69
2023/07/15 03:55:57;;;;;;;5.38;2.17;;;19.90;1.00;;;;;;5108352;28;20408;-69
2023/07/15 03:58:23;;;;;;;4.70;2.00;;;19.90;1.00;;;;;;5108049;28;20400;-70
2023/07/15 04:00:49;;;;;;;5.00;2.00;;;19.90;1.00;;;;;;5090444;28;20523;-69
2023/07/15 04:03:14;;;;;;;5.78;1.83;;;20.00;1.00;;;;;;5107957;28;20407;-70
2023/07/15 04:05:40;;;;;;;5.23;2.20;;;20.00;1.00;;;;;;5108531;28;20444;-70
2023/07/15 04:08:05;;;;;;;4.57;2.00;;;20.00;1.00;;;;;;5102840;28;20436;-70
2023/07/15 04:10:31;;;;;;;5.75;2.20;;;20.00;1.00;;;;;;5100864;28;20454;-70
2023/07/15 04:12:56;;;;;;;6.97;2.50;;;20.00;1.00;;;;;;5100290;28;20831;-70
2023/07/15 04:15:22;;;;;;;4.53;2.10;;;20.00;1.00;;;;;;5126653;27;20455;-70
2023/07/15 04:17:48;;;;;;;5.95;1.88;;;19.90;1.00;;;;;;5107634;28;20400;-69
2023/07/15 04:20:15;;;;;;;5.05;2.13;;;19.90;1.00;;;;;;5107723;28;20400;-69
2023/07/15 04:22:41;;;;;;;5.22;2.35;;;19.90;1.00;;;;;;5108386;28;20404;-69
2023/07/15 04:25:07;;;;;;;4.72;2.30;;;19.90;1.00;;;;;;5107703;28;20415;-70
2023/07/15 04:27:33;;;;;;;4.38;2.10;;;19.90;1.00;;;;;;5107828;28;20505;-69
2023/07/15 04:29:59;;;;;;;4.50;2.00;;;19.80;1.00;;;;;;5107732;28;20428;-70
2023/07/15 04:32:24;;;;;;;4.63;2.42;;;19.80;1.00;;;;;;5106345;28;20410;-69
2023/07/15 04:34:50;;;;;;;5.83;2.13;;;19.80;1.00;;;;;;5126615;27;20402;-70
2023/07/15 04:37:17;;;;;;;4.97;2.05;;;19.80;1.00;;;;;;5124610;27;20440;-69
2023/07/15 04:39:42;;;;;;;4.97;2.20;;;19.80;1.00;;;;;;5125745;27;20918;-70
2023/07/15 04:42:08;;;;;;;4.20;2.10;;;19.80;1.00;;;;;;5115676;27;20392;-70
2023/07/15 04:44:34;;;;;;;6.20;2.35;;;19.90;1.00;;;;;;5123671;28;20464;-70
2023/07/15 04:46:59;;;;;;;4.77;2.13;;;19.90;1.00;;;;;;5127862;27;20514;-70
2023/07/15 04:49:25;;;;;;;5.32;2.00;;;19.90;1.00;;;;;;5126892;27;20402;-70
2023/07/15 04:51:51;;;;;;;4.00;1.87;;;20.00;1.00;;;;;;5126440;28;20439;-69
2023/07/15 04:54:17;;;;;;;4.13;1.83;;;20.00;1.00;;;;;;5110001;27;20453;-69
2023/07/15 04:56:43;;;;;;;3.60;1.75;;;20.00;1.00;;;;;;5131333;27;20405;-70
2023/07/15 04:59:08;;;;;;;5.13;2.00;;;20.10;1.00;;;;;;5130449;27;20394;-70
2023/07/15 05:01:34;;;;;;;5.47;1.90;;;20.10;1.00;;;;;;5131302;27;20390;-70
2023/07/15 05:04:01;;;;;;;4.72;2.05;;;20.20;1.00;;;;;;5130195;27;20403;-70
2023/07/15 05:06:30;;;;;;;5.03;1.90;;;20.20;1.00;;;;;;5130994;27;20414;-69
2023/07/15 05:08:57;;;;;;;5.80;1.83;;;20.30;1.00;;;;;;5129887;27;20485;-70
2023/07/15 05:11:25;;;;;;;4.60;1.70;;;20.30;1.00;;;;;;5130718;27;20429;-70
2023/07/15 05:13:50;;;;;;;4.20;1.85;;;20.40;1.00;;;;;;5129907;27;20534;-70
2023/07/15 05:16:16;;;;;;;5.45;1.80;;;20.40;1.00;;;;;;5119059;27;20420;-69
2023/07/15 05:18:41;;;;;;;5.90;2.40;;;20.50;1.00;;;;;;5110749;27;20417;-69
2023/07/15 05:21:07;;;;;;;5.03;1.70;;;20.60;1.00;;;;;;5122295;27;20523;-70
2023/07/15 05:23:33;;;;;;;4.95;1.80;;;20.70;1.00;;;;;;5129571;27;20450;-70
2023/07/15 05:25:59;;;;;;;5.70;1.93;;;20.80;1.00;;;;;;5129894;27;20423;-69
2023/07/15 05:28:30;;;;;;;4.88;2.13;;;20.90;1.00;;;;;;5128796;27;20834;-70
2023/07/15 05:31:00;;;;;;;4.10;1.50;;;20.90;1.00;;;;;;5118791;27;20420;-70
2023/07/15 05:33:25;;;;;;;3.70;1.60;;;21.00;1.00;;;;;;5115824;27;20402;-70
2023/07/15 05:35:52;;;;;;;3.87;1.90;;;20.90;1.00;;;;;;5130346;27;20755;-69
2023/07/15 05:38:22;;;;;;;4.55;1.70;;;20.90;1.00;;;;;;5127099;27;20891;-69
2023/07/15 05:40:47;;;;;;;4.78;1.73;;;20.90;1.00;;;;;;5129136;27;20418;-70
2023/07/15 05:43:13;;;;;;;6.00;1.90;;;20.90;1.00;;;;;;5127277;27;20492;-70
2023/07/15 05:45:38;;;;;;;5.70;2.00;;;20.90;1.00;;;;;;5128818;27;20454;-70
2023/07/15 05:48:05;;;;;;;5.63;1.53;;;21.00;1.00;;;;;;5127337;27;20442;-70
2023/07/15 05:50:34;;;;;;;5.20;1.80;;;21.00;1.00;;;;;;5129607;27;20409;-70
2023/07/15 05:53:00;;;;;;;6.23;2.00;;;21.00;1.00;;;;;;5125115;27;20903;-70
2023/07/15 05:55:25;;;;;;;3.47;1.80;;;21.00;1.00;;;;;;5128908;27;20394;-70
2023/07/15 05:57:51;;;;;;;4.27;1.80;;;21.10;1.00;;;;;;5125564;27;20409;-70
2023/07/15 06:00:17;;;;;;;5.50;1.52;;;21.10;1.00;;;;;;5128034;27;20410;-69
2023/07/15 06:02:42;;;;;;;4.47;1.83;;;21.20;1.00;;;;;;5125684;27;21157;-70
2023/07/15 06:05:09;;;;;;;5.45;1.83;;;21.30;1.00;;;;;;5127624;27;20398;-69
2023/07/15 06:07:35;;;;;;;3.72;1.90;;;21.30;1.00;;;;;;5123975;27;20426;-70
2023/07/15 06:10:01;;;;;;;4.93;1.90;;;21.40;1.00;;;;;;5128520;27;20399;-70
2023/07/15 06:12:27;;;;;;;4.97;1.90;;;21.40;1.00;;;;;;5125499;27;20477;-70
2023/07/15 06:14:52;;;;;;;6.20;1.83;;;21.50;1.00;;;;;;5127045;27;20804;-70
2023/07/15 06:17:18;;;;;;;5.40;1.80;;;21.50;99.90;;;;;;5115511;27;21350;-70
2023/07/15 06:19:43;;;;;;;3.60;1.80;;;21.60;99.90;;;;;;5117127;27;20404;-70
2023/07/15 06:22:09;;;;;;;5.33;1.83;;;21.60;99.90;;;;;;5128358;27;20407;-70
2023/07/15 06:24:34;;;;;;;3.58;1.88;;;21.70;99.90;;;;;;5129323;27;20442;-70
2023/07/15 06:27:00;;;;;;;3.67;1.60;;;21.80;99.90;;;;;;5128054;27;20458;-70
2023/07/15 06:29:26;;;;;;;3.90;1.70;;;21.80;1.00;;;;;;5128046;27;20910;-70
2023/07/15 06:31:52;;;;;;;3.42;1.50;;;21.80;1.00;;;;;;5121001;27;20403;-70
2023/07/15 06:34:17;;;;;;;5.45;1.73;;;21.90;1.00;;;;;;5120445;27;20395;-70
2023/07/15 06:36:43;;;;;;;3.70;1.60;;;22.00;1.00;;;;;;5106449;27;20923;-70
2023/07/15 06:39:08;;;;;;;4.57;1.60;;;22.00;1.00;;;;;;5127690;27;20493;-70
2023/07/15 06:41:34;;;;;;;5.27;1.87;;;22.00;1.00;;;;;;5124667;27;20930;-69
2023/07/15 06:44:00;;;;;;;3.40;1.42;;;22.10;1.00;;;;;;5127194;27;20399;-69
2023/07/15 06:46:25;;;;;;;2.77;1.50;;;22.20;1.00;;;;;;5124685;27;20438;-69
2023/07/15 06:48:52;;;;;;;4.22;1.67;;;22.30;1.00;;;;;;5127144;27;20470;-70
2023/07/15 06:51:18;;;;;;;4.20;1.50;;;22.50;1.00;;;;;;5124606;27;20822;-70
2023/07/15 06:53:45;;;;;;;3.72;1.60;;;22.50;1.00;;;;;;5108270;27;20399;-70
2023/07/15 06:56:11;;;;;;;4.50;1.35;;;22.60;1.00;;;;;;5124048;27;20411;-69
2023/07/15 06:58:36;;;;;;;4.70;1.50;;;22.60;1.00;;;;;;5127167;27;20843;-69
2023/07/15 07:01:02;;;;;;;4.68;1.80;;;22.60;1.00;;;;;;5111730;27;20919;-70
2023/07/15 07:03:28;;;;;;;4.37;1.60;;;22.70;1.00;;;;;;5103217;27;20418;-71
2023/07/15 07:05:54;;;;;;;2.83;1.40;;;22.80;1.00;;;;;;5105202;28;20511;-70
2023/07/15 07:08:23;;;;;;;4.33;1.87;;;22.80;1.00;;;;;;5099143;27;20476;-71
2023/07/15 07:10:52;;;;;;;5.18;1.60;;;22.90;1.00;;;;;;5103783;28;20403;-71
2023/07/15 07:13:18;;;;;;;3.22;1.48;;;22.90;1.00;;;;;;5106204;27;20400;-70
2023/07/15 07:15:44;;;;;;;4.07;1.40;;;22.90;1.00;;;;;;5108212;27;20404;-69
2023/07/15 07:18:11;;;;;;;4.03;1.60;;;23.00;1.00;;;;;;5105036;27;20731;-70
2023/07/15 07:20:39;;;;;;;4.10;1.30;;;23.10;1.00;;;;;;5110126;27;20404;-71
2023/07/15 07:23:05;;;;;;;3.88;1.27;;;23.20;1.00;;;;;;5107138;28;20411;-71
2023/07/15 07:25:30;;;;;;;3.80;1.35;;;23.20;1.00;;;;;;5100339;27;20740;-71
2023/07/15 07:27:56;;;;;;;5.05;1.70;;;23.30;1.00;;;;;;5103259;28;20438;-71
2023/07/15 07:30:22;;;;;;;3.83;1.30;;;23.20;1.00;;;;;;5110902;27;20406;-71
2023/07/15 07:32:48;;;;;;;4.27;1.30;;;23.30;1.00;;;;;;5101512;27;20424;-71
2023/07/15 07:35:14;;;;;;;4.97;1.52;;;23.40;1.00;;;;;;5093620;27;20416;-71
2023/07/15 07:37:40;;;;;;;4.38;1.35;;;23.50;1.00;;;;;;5107752;27;20404;-72
2023/07/15 07:40:09;;;;;;;4.30;1.42;;;23.50;1.00;;;;;;5105252;27;20400;-70
2023/07/15 07:42:35;;;;;;;3.90;1.10;;;23.50;1.00;;;;;;5100232;28;20401;-70
2023/07/15 07:45:00;;;;;;;5.10;1.40;;;23.50;1.00;;;;;;5094628;27;20812;-70
2023/07/15 07:47:26;;;;;;;4.10;1.23;;;23.60;1.00;;;;;;5091522;28;20434;-70
2023/07/15 07:49:52;;;;;;;3.83;1.40;;;23.60;1.00;;;;;;5104591;28;20406;-70
2023/07/15 07:52:17;;;;;;;3.17;1.10;;;23.60;1.00;;;;;;5095256;28;20398;-70
2023/07/15 07:54:43;;;;;;;3.50;1.20;;;23.70;1.00;;;;;;5112391;28;20408;-70
2023/07/15 07:57:10;;;;;;;3.30;1.50;;;23.70;1.00;;;;;;5110769;28;20431;-70
2023/07/15 07:59:35;;;;;;;4.95;1.33;;;23.80;1.00;;;;;;5107702;28;20420;-70
2023/07/15 08:02:01;;;;;;;5.03;1.27;;;23.90;1.00;;;;;;5105783;27;20420;-70
2023/07/15 08:04:26;;;;;;;4.00;1.50;;;24.00;1.00;;;;;;5113159;28;20403;-70
2023/07/15 08:06:52;;;;;;;2.63;1.30;;;24.00;1.00;;;;;;5115622;27;20416;-70
2023/07/15 08:09:17;;;;;;;3.95;1.15;;;24.00;1.00;;;;;;5109482;27;20832;-70
2023/07/15 08:11:44;;;;;;;3.58;1.20;;;24.10;1.00;;;;;;5111816;28;20412;-70
2023/07/15 08:14:10;;;;;;;4.07;1.20;;;24.20;1.00;;;;;;5107904;28;20412;-70
2023/07/15 08:16:39;;;;;;;3.20;1.30;;;24.30;1.00;;;;;;5108250;28;20415;-70
2023/07/15 08:19:06;;;;;;;3.97;1.13;;;24.30;1.00;;;;;;5104088;28;20412;-70
2023/07/15 08:21:32;;;;;;;3.25;1.15;;;24.30;1.00;;;;;;5109419;28;20887;-70
2023/07/15 08:23:58;;;;;;;4.60;1.02;;;24.40;1.00;;;;;;5119902;27;20478;-70
2023/07/15 08:26:24;;;;;;;4.18;1.30;;;24.50;1.00;;;;;;5112849;28;20415;-70
2023/07/15 08:28:51;;;;;;;3.90;1.20;;;24.60;1.00;;;;;;5119706;27;20425;-70
2023/07/15 08:31:16;;;;;;;2.63;0.98;;;24.70;99.90;;;;;;5116585;27;20827;-70
2023/07/15 08:33:42;;;;;;;2.35;0.90;;;24.70;99.90;;;;;;5123607;27;20415;-70
2023/07/15 08:36:08;;;;;;;2.90;0.93;;;24.70;99.90;;;;;;5117133;27;20751;-70
2023/07/15 08:38:33;;;;;;;3.03;1.00;;;24.80;99.90;;;;;;5124445;27;20456;-70
2023/07/15 08:41:01;;;;;;;3.63;1.30;;;24.90;99.90;;;;;;5117837;27;20862;-70
2023/07/15 08:43:30;;;;;;;3.92;0.90;;;25.00;99.90;;;;;;5123380;27;20933;-70
2023/07/15 08:45:59;;;;;;;3.08;1.00;;;25.10;99.90;;;;;;5117515;27;20773;-70
2023/07/15 08:48:26;;;;;;;2.55;1.00;;;25.10;99.90;;;;;;5118384;27;20786;-70
2023/07/15 08:50:56;;;;;;;2.58;1.05;;;25.10;99.90;;;;;;5115989;27;20445;-70
2023/07/15 08:53:25;;;;;;;2.13;0.93;;;25.10;99.90;;;;;;5122485;27;20492;-70
2023/07/15 08:55:56;;;;;;;2.35;0.98;;;25.10;99.90;;;;;;5118921;27;20403;-70
2023/07/15 08:58:24;;;;;;;3.25;1.10;;;25.00;99.90;;;;;;5114927;27;20447;-70
2023/07/15 09:00:51;;;;;;;2.57;1.10;;;25.00;99.90;;;;;;5113324;27;20388;-70
2023/07/15 09:03:19;;;;;;;2.70;0.98;;;25.00;99.90;;;;;;5120190;27;20450;-70
2023/07/15 09:05:45;;;;;;;5.10;1.10;;;25.10;99.90;;;;;;5120126;27;20442;-71
2023/07/15 09:08:13;;;;;;;2.65;1.00;;;25.30;99.90;;;;;;5116095;27;20420;-70
2023/07/15 09:10:55;;;;;;;3.28;1.30;;;25.40;99.90;;;;;;5117448;27;20493;-70
2023/07/15 09:13:26;;;;;;;2.35;1.00;;;25.60;99.90;;;;;;5116437;27;20439;-70
2023/07/15 09:15:53;;;;;;;2.75;1.17;;;25.60;99.90;;;;;;5115902;27;20428;-70
2023/07/15 09:18:19;;;;;;;4.55;1.20;;;25.60;99.90;;;;;;5120580;27;20408;-70
2023/07/15 09:20:45;;;;;;;3.08;1.10;;;25.60;99.90;;;;;;5117346;27;20402;-70
2023/07/15 09:23:11;;;;;;;3.15;1.10;;;25.40;99.90;;;;;;5120644;27;20427;-71
2023/07/15 09:25:37;;;;;;;2.90;0.90;;;25.40;99.90;;;;;;5116636;27;20504;-70
2023/07/15 09:28:07;;;;;;;4.10;0.90;;;25.40;99.90;;;;;;5128214;27;20427;-71
2023/07/15 09:30:32;;;;;;;3.42;1.02;;;25.60;99.90;;;;;;5104716;27;20911;-70
2023/07/15 09:32:58;;;;;;;2.47;1.03;;;25.80;99.90;;;;;;5125779;27;20493;-70
2023/07/15 09:35:35;;;;;;;3.90;1.17;;;26.00;99.90;;;;;;5121602;27;20493;-71
2023/07/15 09:38:00;;;;;;;4.05;1.25;;;26.30;99.90;;;;;;5126181;27;20415;-71
2023/07/15 09:40:26;;;;;;;2.03;1.10;;;26.50;99.90;;;;;;5120347;27;20392;-71
2023/07/15 09:42:52;;;;;;;2.53;0.90;;;26.70;99.90;;;;;;5108756;28;21579;-71
2023/07/15 09:45:35;;;;;;;2.63;1.00;;;26.90;99.90;;;;;;5106874;27;20402;-70
2023/07/15 09:48:08;;;;;;;2.70;1.10;;;27.00;99.90;;;;;;5127454;27;20782;-70
2023/07/15 09:50:36;;;;;;;1.52;0.80;;;27.30;99.90;;;;;;5121873;27;20410;-71
2023/07/15 09:53:02;;;;;;;2.50;1.00;;;27.60;99.90;;;;;;5124868;27;20494;-70
2023/07/15 09:55:29;;;;;;;2.97;1.05;;;27.80;99.90;;;;;;5114998;27;20495;-70
2023/07/15 09:58:21;;;;;;;2.92;0.98;;;27.90;99.90;;;;;;5124628;27;20913;-69
2023/07/15 10:00:52;;;;;;;3.13;1.07;;;28.10;99.90;;;;;;5115774;27;20466;-69
2023/07/15 10:03:30;;;;;;;2.25;0.90;;;28.10;99.90;;;;;;5119460;27;20995;-69
2023/07/15 10:05:55;;;;;;;3.50;0.90;;;27.80;99.90;;;;;;5124422;27;20406;-69
2023/07/15 10:08:22;;;;;;;3.43;1.20;;;27.50;99.90;;;;;;5126746;27;20418;-69
2023/07/15 10:10:48;;;;;;;3.33;1.10;;;27.30;99.90;;;;;;5124211;27;20391;-69
2023/07/15 10:13:14;;;;;;;3.42;1.15;;;27.00;99.90;;;;;;5116251;27;20415;-70
2023/07/15 10:15:42;;;;;;;1.92;0.90;;;27.10;99.90;;;;;;5120093;27;20759;-69
2023/07/15 10:18:31;;;;;;;2.28;1.15;;;27.30;99.90;;;;;;5109326;28;20392;-69
2023/07/15 10:20:58;;;;;;;2.25;1.17;;;27.40;99.90;;;;;;5098121;28;20403;-70
2023/07/15 10:23:29;;;;;;;4.80;1.10;;;27.50;99.90;;;;;;5109625;27;20499;-69
2023/07/15 10:26:20;;;;;;;3.92;1.23;;;27.40;99.90;;;;;;5129362;27;20409;-69
2023/07/15 10:28:51;;;;;;;4.00;1.25;;;27.30;99.90;;;;;;5125945;27;20866;-70
2023/07/15 10:31:24;;;;;;;2.45;1.00;;;27.20;99.90;;;;;;5126364;27;20395;-69
2023/07/15 10:34:02;;;;;;;3.67;1.35;;;27.30;99.90;;;;;;5115547;27;21361;-69
2023/07/15 10:36:35;;;;;;;2.80;1.00;;;27.80;99.90;;;;;;5125654;27;20483;-70
2023/07/15 10:39:20;;;;;;;3.90;1.40;;;28.30;99.90;;;;;;5127617;27;20410;-69
2023/07/15 10:41:52;;;;;;;3.00;1.23;;;28.70;99.90;;;;;;5120518;27;20396;-69
2023/07/15 10:44:23;;;;;;;2.57;0.70;;;29.00;99.90;;;;;;5119576;27;20848;-70
2023/07/15 10:47:00;;;;;;;2.78;1.05;;;29.30;99.90;;;;;;5107447;27;20427;-70
2023/07/15 10:49:26;;;;;;;2.60;0.98;;;29.30;99.90;;;;;;5123186;27;20404;-71
2023/07/15 10:51:54;;;;;;;2.08;0.68;;;29.10;99.90;;;;;;5125729;27;20410;-71
2023/07/15 10:54:28;;;;;;;1.83;0.80;;;29.20;99.90;;;;;;5121149;27;20929;-71
2023/07/15 10:56:54;;;;;;;3.58;0.80;;;29.30;99.90;;;;;;5126155;27;20398;-70
2023/07/15 10:59:31;;;;;;;2.13;0.88;;;29.40;99.90;;;;;;5094661;27;20458;-70
2023/07/15 11:01:58;;;;;;;2.08;0.80;;;29.80;99.90;;;;;;5112307;27;20416;-71
2023/07/15 11:04:24;;;;;;;3.55;1.10;;;30.00;99.90;;;;;;5109717;27;20410;-71
2023/07/15 11:06:50;;;;;;;3.80;0.80;;;30.20;99.90;;;;;;5119359;27;20422;-70
2023/07/15 11:09:18;;;;;;;2.57;1.00;;;30.50;99.90;;;;;;5123855;27;20839;-70
2023/07/15 11:11:43;;;;;;;2.83;0.60;;;30.50;99.90;;;;;;5119639;27;20420;-70
2023/07/15 11:14:26;;;;;;;1.90;0.70;;;30.40;99.90;;;;;;5118149;27;20416;-70
2023/07/15 11:16:56;;;;;;;3.65;0.73;;;30.20;99.90;;;;;;5100678;27;20426;-70
2023/07/15 11:19:23;;;;;;;2.92;0.88;;;30.20;99.90;;;;;;5100235;27;20416;-71
2023/07/15 11:21:51;;;;;;;2.45;0.80;;;30.40;99.90;;;;;;5105659;27;20519;-70
2023/07/15 11:24:18;;;;;;;2.00;0.60;;;30.50;99.90;;;;;;5086777;28;20445;-70
2023/07/15 11:26:44;;;;;;;3.17;0.77;;;30.50;99.90;;;;;;5100600;27;20441;-70
2023/07/15 11:29:28;;;;;;;2.05;0.68;;;30.50;99.90;;;;;;5111502;27;20402;-70
2023/07/15 11:31:55;;;;;;;1.30;0.70;;;30.60;99.90;;;;;;5108677;27;20399;-70
2023/07/15 11:34:26;;;;;;;2.22;0.70;;;30.70;99.90;;;;;;5108520;27;20404;-70
2023/07/15 11:36:53;;;;;;;2.35;0.75;;;30.80;99.90;;;;;;5094836;27;20417;-70
2023/07/15 11:39:20;;;;;;;2.05;0.60;;;30.80;99.90;;;;;;5091975;28;20413;-71
2023/07/15 11:41:48;;;;;;;1.90;0.60;;;30.70;99.90;;;;;;5099005;28;20831;-71
2023/07/15 11:44:15;;;;;;;2.03;0.70;;;30.80;99.90;;;;;;5095805;27;20390;-70
2023/07/15 11:46:44;;;;;;;2.95;0.75;;;30.80;99.90;;;;;;5106155;28;20501;-71
2023/07/15 11:49:10;;;;;;;3.13;0.73;;;30.90;99.90;;;;;;5095644;27;20404;-70
2023/07/15 11:51:41;;;;;;;2.88;0.50;;;30.90;99.90;;;;;;5110684;28;20400;-71
2023/07/15 11:54:11;;;;;;;2.67;0.70;;;30.60;99.90;;;;;;5101888;28;20850;-70
2023/07/15 11:56:36;;;;;;;2.50;0.70;;;30.20;99.90;;;;;;5106816;28;20394;-70
2023/07/15 11:59:04;;;;;;;2.00;0.57;;;30.00;99.90;;;;;;5107906;27;20458;-71
2023/07/15 12:01:30;;;;;;;3.10;0.80;;;29.70;99.90;;;;;;5101972;27;20737;-70
2023/07/15 12:03:56;;;;;;;2.30;0.65;;;29.50;99.90;;;;;;5123848;27;20517;-70
2023/07/15 12:06:24;;;;;;;1.47;0.53;;;29.40;99.90;;;;;;5123666;27;20435;-71
2023/07/15 12:09:09;;;;;;;3.67;0.65;;;29.30;99.90;;;;;;5123461;27;20413;-71
2023/07/15 12:11:35;;;;;;;3.35;0.75;;;29.10;99.90;;;;;;5130055;27;20386;-71
2023/07/15 12:14:04;;;;;;;2.97;0.70;;;29.10;99.90;;;;;;5116033;27;20604;-71
2023/07/15 12:16:31;;;;;;;2.00;0.82;;;29.00;99.90;;;;;;5114353;27;20455;-71
2023/07/15 12:18:58;;;;;;;3.25;0.80;;;29.00;99.90;;;;;;5112033;27;20396;-70
2023/07/15 12:21:24;;;;;;;1.38;0.70;;;29.00;99.90;;;;;;5112461;27;20399;-70
2023/07/15 12:23:53;;;;;;;2.38;0.70;;;29.00;99.90;;;;;;5118113;27;20835;-70
2023/07/15 12:26:19;;;;;;;2.20;0.60;;;28.80;99.90;;;;;;5132291;27;20444;-70
2023/07/15 12:28:45;;;;;;;3.65;0.70;;;28.80;99.90;;;;;;5130514;27;20399;-70
2023/07/15 12:31:11;;;;;;;2.67;0.80;;;28.70;99.90;;;;;;5112882;27;20407;-70
2023/07/15 12:33:37;;;;;;;3.67;0.80;;;28.90;99.90;;;;;;5130993;27;20402;-70
2023/07/15 12:36:03;;;;;;;2.28;0.73;;;29.20;99.90;;;;;;5130734;27;20414;-70
2023/07/15 12:38:29;;;;;;;3.50;0.80;;;29.60;99.90;;;;;;5117517;27;20425;-70
2023/07/15 12:40:56;;;;;;;3.43;0.80;;;29.70;99.90;;;;;;5125367;27;20418;-70
2023/07/15 12:43:23;;;;;;;2.57;0.63;;;29.80;99.90;;;;;;5130919;27;20788;-70
2023/07/15 12:45:50;;;;;;;2.78;0.77;;;30.00;99.90;;;;;;5130488;27;20919;-71
2023/07/15 12:48:16;;;;;;;3.60;0.70;;;30.20;99.90;;;;;;5125165;27;20428;-70
2023/07/15 12:50:41;;;;;;;1.88;0.80;;;30.60;99.90;;;;;;5124403;27;20398;-71
2023/07/15 12:53:07;;;;;;;3.30;1.00;;;30.80;99.90;;;;;;5131766;27;20428;-70